sensor_id;sensor_type;location;lat;lon;timestamp;pressure;altitude;pressure_sealevel;temperature;humidity
20115;BME280;10218;42.874;25.320;2023-03-21T00:01:54;97033.69;;;9.79;100.00
20115;BME280;10218;42.874;25.320;2023-03-21T00:04:25;97040.19;;;10.32;93.57
20115;BME280;10218;42.874;25.320;2023-03-21T00:06:58;97028.53;;;10.64;83.19
20115;BME280;10218;42.874;25.320;2023-03-21T00:09:26;97022.41;;;10.47;85.76
20115;BME280;10218;42.874;25.320;2023-03-21T00:11:53;97016.81;;;10.34;89.78
20115;BME280;10218;42.874;25.320;2023-03-21T00:14:20;97014.91;;;10.04;95.88
20115;BME280;10218;42.874;25.320;2023-03-21T00:16:47;97010.53;;;10.11;96.72
20115;BME280;10218;42.874;25.320;2023-03-21T00:19:17;97002.12;;;10.38;92.50
20115;BME280;10218;42.874;25.320;2023-03-21T00:21:46;97009.28;;;10.68;83.59
20115;BME280;10218;42.874;25.320;2023-03-21T00:24:35;97002.91;;;10.47;85.75
20115;BME280;10218;42.874;25.320;2023-03-21T00:27:03;96993.97;;;10.62;79.92
20115;BME280;10218;42.874;25.320;2023-03-21T00:29:50;96985.91;;;10.70;77.41
20115;BME280;10218;42.874;25.320;2023-03-21T00:32:18;96988.28;;;10.65;78.78
20115;BME280;10218;42.874;25.320;2023-03-21T00:34:47;96986.94;;;10.39;85.39
20115;BME280;10218;42.874;25.320;2023-03-21T00:37:28;96983.84;;;10.11;88.08
20115;BME280;10218;42.874;25.320;2023-03-21T00:39:55;96991.94;;;9.86;92.45
20115;BME280;10218;42.874;25.320;2023-03-21T00:42:22;96981.78;;;9.90;93.75
20115;BME280;10218;42.874;25.320;2023-03-21T00:44:49;96983.94;;;9.95;94.43
20115;BME280;10218;42.874;25.320;2023-03-21T00:47:16;96978.88;;;10.08;92.24
20115;BME280;10218;42.874;25.320;2023-03-21T00:49:44;96981.50;;;10.24;89.46
20115;BME280;10218;42.874;25.320;2023-03-21T00:52:11;96980.91;;;9.98;93.63
20115;BME280;10218;42.874;25.320;2023-03-21T00:54:45;96979.59;;;9.94;94.19
20115;BME280;10218;42.874;25.320;2023-03-21T00:57:13;96982.03;;;9.64;100.00
20115;BME280;10218;42.874;25.320;2023-03-21T00:59:40;96978.38;;;9.57;100.00
20115;BME280;10218;42.874;25.320;2023-03-21T01:02:08;96979.66;;;9.77;100.00
20115;BME280;10218;42.874;25.320;2023-03-21T01:04:40;96972.72;;;9.52;100.00
20115;BME280;10218;42.874;25.320;2023-03-21T01:07:08;96966.91;;;9.49;100.00
20115;BME280;10218;42.874;25.320;2023-03-21T01:09:37;96973.72;;;9.43;100.00
20115;BME280;10218;42.874;25.320;2023-03-21T01:12:04;96960.06;;;9.54;100.00
20115;BME280;10218;42.874;25.320;2023-03-21T01:14:31;96960.44;;;9.90;100.00
20115;BME280;10218;42.874;25.320;2023-03-21T01:16:58;96959.97;;;9.70;100.00
20115;BME280;10218;42.874;25.320;2023-03-21T01:19:26;96959.09;;;9.86;100.00
20115;BME280;10218;42.874;25.320;2023-03-21T01:22:10;96959.97;;;9.70;100.00
20115;BME280;10218;42.874;25.320;2023-03-21T01:24:37;96954.00;;;9.60;100.00
20115;BME280;10218;42.874;25.320;2023-03-21T01:27:16;96944.87;;;9.47;100.00
20115;BME280;10218;42.874;25.320;2023-03-21T01:29:44;96942.34;;;9.69;100.00
20115;BME280;10218;42.874;25.320;2023-03-21T01:32:11;96936.37;;;9.98;100.00
20115;BME280;10218;42.874;25.320;2023-03-21T01:34:37;96941.50;;;10.08;100.00
20115;BME280;10218;42.874;25.320;2023-03-21T01:37:05;96945.81;;;9.78;100.00
20115;BME280;10218;42.874;25.320;2023-03-21T01:39:35;96935.22;;;9.93;100.00
20115;BME280;10218;42.874;25.320;2023-03-21T01:42:02;96933.22;;;9.95;100.00
20115;BME280;10218;42.874;25.320;2023-03-21T01:44:30;96924.47;;;10.17;94.49
20115;BME280;10218;42.874;25.320;2023-03-21T01:46:57;96935.06;;;10.33;88.23
20115;BME280;10218;42.874;25.320;2023-03-21T01:49:44;96925.56;;;10.31;85.71
20115;BME280;10218;42.874;25.320;2023-03-21T01:52:16;96921.25;;;9.82;93.36
20115;BME280;10218;42.874;25.320;2023-03-21T01:54:56;96931.94;;;9.82;95.62
20115;BME280;10218;42.874;25.320;2023-03-21T01:57:37;96929.91;;;9.93;93.11
20115;BME280;10218;42.874;25.320;2023-03-21T02:00:19;96933.28;;;10.25;90.05
20115;BME280;10218;42.874;25.320;2023-03-21T02:02:51;96934.50;;;10.07;96.91
20115;BME280;10218;42.874;25.320;2023-03-21T02:05:32;96927.28;;;9.76;100.00
20115;BME280;10218;42.874;25.320;2023-03-21T02:08:03;96929.22;;;9.52;100.00
20115;BME280;10218;42.874;25.320;2023-03-21T02:10:31;96930.37;;;9.57;100.00
20115;BME280;10218;42.874;25.320;2023-03-21T02:13:02;96927.84;;;9.56;100.00
20115;BME280;10218;42.874;25.320;2023-03-21T02:15:37;96917.91;;;9.88;100.00
20115;BME280;10218;42.874;25.320;2023-03-21T02:18:18;96915.84;;;9.99;100.00
20115;BME280;10218;42.874;25.320;2023-03-21T02:32:04;96922.66;;;10.01;100.00
20115;BME280;10218;42.874;25.320;2023-03-21T02:37:47;96920.19;;;10.00;100.00
20115;BME280;10218;42.874;25.320;2023-03-21T02:40:34;96920.94;;;10.24;98.12
20115;BME280;10218;42.874;25.320;2023-03-21T02:43:16;96925.06;;;10.27;95.57
20115;BME280;10218;42.874;25.320;2023-03-21T02:48:52;96917.50;;;10.39;92.79
20115;BME280;10218;42.874;25.320;2023-03-21T02:51:22;96924.94;;;9.81;100.00
20115;BME280;10218;42.874;25.320;2023-03-21T02:53:57;96933.75;;;9.90;100.00
20115;BME280;10218;42.874;25.320;2023-03-21T02:56:49;96940.50;;;10.09;100.00
20115;BME280;10218;42.874;25.320;2023-03-21T02:59:20;96946.84;;;10.08;100.00
20115;BME280;10218;42.874;25.320;2023-03-21T03:01:50;96948.09;;;10.28;97.39
20115;BME280;10218;42.874;25.320;2023-03-21T03:04:26;96943.16;;;10.09;100.00
20115;BME280;10218;42.874;25.320;2023-03-21T03:15:23;96962.13;;;10.30;100.00
20115;BME280;10218;42.874;25.320;2023-03-21T03:18:09;96965.78;;;9.82;100.00
20115;BME280;10218;42.874;25.320;2023-03-21T03:23:32;96970.97;;;10.22;100.00
20115;BME280;10218;42.874;25.320;2023-03-21T03:26:26;96980.88;;;10.45;100.00
20115;BME280;10218;42.874;25.320;2023-03-21T03:28:58;96987.97;;;10.83;94.87
20115;BME280;10218;42.874;25.320;2023-03-21T03:31:33;96964.53;;;10.70;97.23
20115;BME280;10218;42.874;25.320;2023-03-21T03:34:09;96983.88;;;10.72;96.22
20115;BME280;10218;42.874;25.320;2023-03-21T03:36:42;96978.66;;;10.56;96.91
20115;BME280;10218;42.874;25.320;2023-03-21T03:39:12;96972.03;;;10.44;97.06
20115;BME280;10218;42.874;25.320;2023-03-21T03:42:33;96971.97;;;10.52;93.22
20115;BME280;10218;42.874;25.320;2023-03-21T03:44:48;96961.34;;;10.44;95.00
20115;BME280;10218;42.874;25.320;2023-03-21T03:47:20;96965.22;;;10.03;100.00
20115;BME280;10218;42.874;25.320;2023-03-21T03:50:06;96968.81;;;9.71;100.00
20115;BME280;10218;42.874;25.320;2023-03-21T03:52:41;96969.06;;;9.37;100.00
20115;BME280;10218;42.874;25.320;2023-03-21T03:55:22;96964.81;;;9.75;100.00
20115;BME280;10218;42.874;25.320;2023-03-21T03:57:53;96949.25;;;9.86;100.00
20115;BME280;10218;42.874;25.320;2023-03-21T04:00:20;96953.25;;;9.91;100.00
20115;BME280;10218;42.874;25.320;2023-03-21T04:02:48;96956.19;;;10.04;100.00
20115;BME280;10218;42.874;25.320;2023-03-21T04:05:15;96959.81;;;10.11;100.00
20115;BME280;10218;42.874;25.320;2023-03-21T04:07:47;96968.75;;;10.34;92.29
20115;BME280;10218;42.874;25.320;2023-03-21T04:10:18;96960.16;;;10.47;87.87
20115;BME280;10218;42.874;25.320;2023-03-21T04:12:45;96962.44;;;10.27;93.75
20115;BME280;10218;42.874;25.320;2023-03-21T04:15:13;96965.34;;;10.17;95.52
20115;BME280;10218;42.874;25.320;2023-03-21T04:17:41;96954.81;;;10.16;96.48
20115;BME280;10218;42.874;25.320;2023-03-21T04:20:08;96956.41;;;9.94;100.00
20115;BME280;10218;42.874;25.320;2023-03-21T04:22:41;96952.37;;;9.98;100.00
20115;BME280;10218;42.874;25.320;2023-03-21T04:25:08;96946.44;;;9.88;100.00
20115;BME280;10218;42.874;25.320;2023-03-21T04:27:36;96957.56;;;9.92;100.00
20115;BME280;10218;42.874;25.320;2023-03-21T04:30:05;96952.97;;;9.77;100.00
20115;BME280;10218;42.874;25.320;2023-03-21T04:32:34;96946.28;;;9.81;100.00
20115;BME280;10218;42.874;25.320;2023-03-21T04:35:06;96940.03;;;9.58;100.00
20115;BME280;10218;42.874;25.320;2023-03-21T04:37:34;96946.38;;;9.57;100.00
20115;BME280;10218;42.874;25.320;2023-03-21T04:40:03;96949.69;;;9.59;100.00
20115;BME280;10218;42.874;25.320;2023-03-21T04:42:33;96946.06;;;9.44;100.00
20115;BME280;10218;42.874;25.320;2023-03-21T04:45:01;96950.72;;;9.42;100.00
20115;BME280;10218;42.874;25.320;2023-03-21T04:47:28;96943.66;;;9.73;100.00
20115;BME280;10218;42.874;25.320;2023-03-21T04:49:56;96947.72;;;10.00;100.00
20115;BME280;10218;42.874;25.320;2023-03-21T04:52:23;96935.19;;;10.01;100.00
20115;BME280;10218;42.874;25.320;2023-03-21T04:54:51;96939.28;;;9.80;100.00
20115;BME280;10218;42.874;25.320;2023-03-21T04:57:19;96949.31;;;9.70;100.00
20115;BME280;10218;42.874;25.320;2023-03-21T04:59:46;96948.47;;;9.78;100.00
20115;BME280;10218;42.874;25.320;2023-03-21T05:02:13;96951.66;;;10.20;99.00
20115;BME280;10218;42.874;25.320;2023-03-21T05:04:41;96955.78;;;10.54;91.20
20115;BME280;10218;42.874;25.320;2023-03-21T05:07:08;96961.59;;;10.35;94.46
20115;BME280;10218;42.874;25.320;2023-03-21T05:09:36;96962.22;;;9.98;100.00
20115;BME280;10218;42.874;25.320;2023-03-21T05:12:04;96974.09;;;9.87;100.00
20115;BME280;10218;42.874;25.320;2023-03-21T05:14:31;96964.44;;;9.86;100.00
20115;BME280;10218;42.874;25.320;2023-03-21T05:16:58;96970.47;;;9.80;100.00
20115;BME280;10218;42.874;25.320;2023-03-21T05:19:29;96977.25;;;9.91;100.00
20115;BME280;10218;42.874;25.320;2023-03-21T05:22:03;96970.28;;;9.90;100.00
20115;BME280;10218;42.874;25.320;2023-03-21T05:24:31;96979.06;;;9.98;100.00
20115;BME280;10218;42.874;25.320;2023-03-21T05:27:00;96977.56;;;10.04;100.00
20115;BME280;10218;42.874;25.320;2023-03-21T05:29:30;96965.50;;;10.16;100.00
20115;BME280;10218;42.874;25.320;2023-03-21T05:32:00;96983.28;;;10.62;98.88
20115;BME280;10218;42.874;25.320;2023-03-21T05:34:27;96982.81;;;10.59;99.36
20115;BME280;10218;42.874;25.320;2023-03-21T05:36:54;96979.06;;;10.45;100.00
20115;BME280;10218;42.874;25.320;2023-03-21T05:39:22;96973.81;;;10.21;100.00
20115;BME280;10218;42.874;25.320;2023-03-21T05:41:50;96976.56;;;10.05;100.00
20115;BME280;10218;42.874;25.320;2023-03-21T05:44:17;96977.63;;;10.26;100.00
20115;BME280;10218;42.874;25.320;2023-03-21T05:46:45;96984.38;;;10.76;100.00
20115;BME280;10218;42.874;25.320;2023-03-21T05:49:12;96976.34;;;10.99;95.99
20115;BME280;10218;42.874;25.320;2023-03-21T05:51:39;96978.78;;;11.61;88.30
20115;BME280;10218;42.874;25.320;2023-03-21T05:54:07;96979.50;;;11.92;84.59
20115;BME280;10218;42.874;25.320;2023-03-21T05:56:34;96981.34;;;11.91;80.08
20115;BME280;10218;42.874;25.320;2023-03-21T05:59:02;96978.19;;;11.88;80.97
20115;BME280;10218;42.874;25.320;2023-03-21T06:01:30;96966.25;;;12.20;76.71
20115;BME280;10218;42.874;25.320;2023-03-21T06:03:58;96966.84;;;12.00;79.98
20115;BME280;10218;42.874;25.320;2023-03-21T06:06:25;96967.66;;;12.01;78.27
20115;BME280;10218;42.874;25.320;2023-03-21T06:08:52;96964.00;;;11.87;80.20
20115;BME280;10218;42.874;25.320;2023-03-21T06:11:31;96964.81;;;11.88;78.85
20115;BME280;10218;42.874;25.320;2023-03-21T06:13:59;96963.75;;;11.59;79.90
20115;BME280;10218;42.874;25.320;2023-03-21T06:16:27;96967.56;;;11.80;76.72
20115;BME280;10218;42.874;25.320;2023-03-21T06:18:55;96962.53;;;12.35;68.35
20115;BME280;10218;42.874;25.320;2023-03-21T06:21:23;96958.88;;;12.58;66.28
20115;BME280;10218;42.874;25.320;2023-03-21T06:23:52;96953.66;;;12.92;64.12
20115;BME280;10218;42.874;25.320;2023-03-21T06:26:21;96963.75;;;12.90;65.82
20115;BME280;10218;42.874;25.320;2023-03-21T06:28:50;96960.69;;;13.36;63.07
20115;BME280;10218;42.874;25.320;2023-03-21T06:31:18;96962.56;;;13.14;63.51
20115;BME280;10218;42.874;25.320;2023-03-21T06:33:49;96964.00;;;13.38;62.91
20115;BME280;10218;42.874;25.320;2023-03-21T06:36:18;96962.69;;;12.84;66.61
20115;BME280;10218;42.874;25.320;2023-03-21T06:38:45;96972.94;;;13.45;63.21
20115;BME280;10218;42.874;25.320;2023-03-21T06:41:13;96973.88;;;13.31;63.48
20115;BME280;10218;42.874;25.320;2023-03-21T06:43:42;96974.94;;;13.64;63.18
20115;BME280;10218;42.874;25.320;2023-03-21T06:46:09;96980.75;;;13.67;60.57
20115;BME280;10218;42.874;25.320;2023-03-21T06:48:36;96980.75;;;14.02;60.15
20115;BME280;10218;42.874;25.320;2023-03-21T06:51:05;96983.88;;;14.05;58.88
20115;BME280;10218;42.874;25.320;2023-03-21T06:53:33;96986.75;;;14.99;56.26
20115;BME280;10218;42.874;25.320;2023-03-21T06:56:02;96992.78;;;15.14;55.64
20115;BME280;10218;42.874;25.320;2023-03-21T06:58:30;96988.88;;;15.43;55.11
20115;BME280;10218;42.874;25.320;2023-03-21T07:00:59;96983.72;;;15.61;53.76
20115;BME280;10218;42.874;25.320;2023-03-21T07:03:28;96990.13;;;15.93;51.33
20115;BME280;10218;42.874;25.320;2023-03-21T07:05:58;96995.50;;;15.87;47.57
20115;BME280;10218;42.874;25.320;2023-03-21T07:08:29;96986.12;;;16.80;45.80
20115;BME280;10218;42.874;25.320;2023-03-21T07:10:57;96985.53;;;17.09;46.21
20115;BME280;10218;42.874;25.320;2023-03-21T07:13:24;96986.84;;;17.63;46.15
20115;BME280;10218;42.874;25.320;2023-03-21T07:15:52;96993.56;;;16.33;46.19
20115;BME280;10218;42.874;25.320;2023-03-21T07:18:20;96991.13;;;17.14;45.27
20115;BME280;10218;42.874;25.320;2023-03-21T07:20:48;96978.34;;;16.58;46.52
20115;BME280;10218;42.874;25.320;2023-03-21T07:23:18;96990.06;;;16.84;45.33
20115;BME280;10218;42.874;25.320;2023-03-21T07:25:47;96992.69;;;17.60;45.95
20115;BME280;10218;42.874;25.320;2023-03-21T07:28:15;96989.47;;;17.94;43.78
20115;BME280;10218;42.874;25.320;2023-03-21T07:30:43;96990.16;;;17.65;44.18
20115;BME280;10218;42.874;25.320;2023-03-21T07:33:11;96990.59;;;17.30;45.28
20115;BME280;10218;42.874;25.320;2023-03-21T07:35:38;96999.13;;;17.27;44.99
20115;BME280;10218;42.874;25.320;2023-03-21T07:38:05;96999.22;;;18.38;44.36
20115;BME280;10218;42.874;25.320;2023-03-21T07:40:33;96985.84;;;17.26;45.18
20115;BME280;10218;42.874;25.320;2023-03-21T07:43:00;96985.59;;;18.26;43.92
20115;BME280;10218;42.874;25.320;2023-03-21T07:45:32;96978.06;;;17.92;41.97
20115;BME280;10218;42.874;25.320;2023-03-21T07:47:59;96974.06;;;17.94;43.15
20115;BME280;10218;42.874;25.320;2023-03-21T07:50:26;96976.59;;;18.32;42.04
20115;BME280;10218;42.874;25.320;2023-03-21T07:52:53;96985.00;;;16.94;43.86
20115;BME280;10218;42.874;25.320;2023-03-21T07:55:21;96979.69;;;17.43;43.90
20115;BME280;10218;42.874;25.320;2023-03-21T07:57:51;96980.34;;;17.39;43.16
20115;BME280;10218;42.874;25.320;2023-03-21T08:00:19;96973.56;;;18.04;43.04
20115;BME280;10218;42.874;25.320;2023-03-21T08:02:50;96975.59;;;18.82;41.26
20115;BME280;10218;42.874;25.320;2023-03-21T08:05:26;96976.66;;;17.83;42.22
20115;BME280;10218;42.874;25.320;2023-03-21T08:07:55;96971.53;;;17.25;42.94
20115;BME280;10218;42.874;25.320;2023-03-21T08:10:22;96966.91;;;18.43;41.05
20115;BME280;10218;42.874;25.320;2023-03-21T08:12:49;96963.66;;;18.53;40.56
20115;BME280;10218;42.874;25.320;2023-03-21T08:15:17;96965.28;;;17.81;42.60
20115;BME280;10218;42.874;25.320;2023-03-21T08:17:44;96963.38;;;18.61;41.05
20115;BME280;10218;42.874;25.320;2023-03-21T08:20:14;96964.59;;;18.28;40.90
20115;BME280;10218;42.874;25.320;2023-03-21T08:22:42;96964.72;;;18.52;40.55
20115;BME280;10218;42.874;25.320;2023-03-21T08:25:11;96973.50;;;18.29;40.32
20115;BME280;10218;42.874;25.320;2023-03-21T08:27:43;96958.94;;;18.12;40.11
20115;BME280;10218;42.874;25.320;2023-03-21T08:30:12;96958.91;;;17.19;41.35
20115;BME280;10218;42.874;25.320;2023-03-21T08:32:40;96958.69;;;18.50;39.57
20115;BME280;10218;42.874;25.320;2023-03-21T08:35:10;96957.34;;;18.41;39.61
20115;BME280;10218;42.874;25.320;2023-03-21T08:37:38;96951.41;;;18.14;39.07
20115;BME280;10218;42.874;25.320;2023-03-21T08:40:09;96957.41;;;19.83;38.44
20115;BME280;10218;42.874;25.320;2023-03-21T08:42:38;96955.19;;;19.39;37.46
20115;BME280;10218;42.874;25.320;2023-03-21T08:45:06;96958.56;;;19.64;37.13
20115;BME280;10218;42.874;25.320;2023-03-21T08:47:34;96957.50;;;19.65;37.18
20115;BME280;10218;42.874;25.320;2023-03-21T08:50:02;96959.28;;;19.59;39.09
20115;BME280;10218;42.874;25.320;2023-03-21T08:52:32;96955.81;;;19.11;39.24
20115;BME280;10218;42.874;25.320;2023-03-21T08:54:59;96945.37;;;19.79;39.68
20115;BME280;10218;42.874;25.320;2023-03-21T08:57:29;96963.38;;;19.62;40.25
20115;BME280;10218;42.874;25.320;2023-03-21T08:59:56;96953.97;;;19.99;39.03
20115;BME280;10218;42.874;25.320;2023-03-21T09:02:23;96951.94;;;20.30;37.26
20115;BME280;10218;42.874;25.320;2023-03-21T09:04:50;96946.63;;;20.23;38.30
20115;BME280;10218;42.874;25.320;2023-03-21T09:07:20;96944.19;;;19.75;37.12
20115;BME280;10218;42.874;25.320;2023-03-21T09:09:47;96945.88;;;20.63;37.37
20115;BME280;10218;42.874;25.320;2023-03-21T09:12:34;96947.47;;;19.77;38.10
20115;BME280;10218;42.874;25.320;2023-03-21T09:15:01;96940.03;;;20.82;36.94
20115;BME280;10218;42.874;25.320;2023-03-21T09:17:29;96942.72;;;21.11;36.57
20115;BME280;10218;42.874;25.320;2023-03-21T09:19:57;96938.47;;;21.43;35.29
20115;BME280;10218;42.874;25.320;2023-03-21T09:22:26;96934.38;;;20.44;36.61
20115;BME280;10218;42.874;25.320;2023-03-21T09:24:53;96935.50;;;19.32;38.47
20115;BME280;10218;42.874;25.320;2023-03-21T09:27:20;96932.75;;;19.08;38.00
20115;BME280;10218;42.874;25.320;2023-03-21T09:29:48;96928.87;;;19.92;37.09
20115;BME280;10218;42.874;25.320;2023-03-21T09:32:16;96931.09;;;20.70;36.10
20115;BME280;10218;42.874;25.320;2023-03-21T09:34:44;96927.34;;;20.31;35.94
20115;BME280;10218;42.874;25.320;2023-03-21T09:37:11;96936.72;;;18.94;36.83
20115;BME280;10218;42.874;25.320;2023-03-21T09:39:42;96938.75;;;19.10;36.46
20115;BME280;10218;42.874;25.320;2023-03-21T09:45:15;96928.84;;;18.74;37.34
20115;BME280;10218;42.874;25.320;2023-03-21T09:47:47;96926.16;;;19.92;35.49
20115;BME280;10218;42.874;25.320;2023-03-21T09:50:30;96915.31;;;19.92;36.32
20115;BME280;10218;42.874;25.320;2023-03-21T09:55:49;96911.88;;;20.08;36.59
20115;BME280;10218;42.874;25.320;2023-03-21T10:01:12;96902.03;;;20.42;35.49
20115;BME280;10218;42.874;25.320;2023-03-21T10:03:48;96915.22;;;21.36;34.43
20115;BME280;10218;42.874;25.320;2023-03-21T10:06:16;96923.19;;;20.69;34.08
20115;BME280;10218;42.874;25.320;2023-03-21T10:08:45;96911.03;;;21.00;34.24
20115;BME280;10218;42.874;25.320;2023-03-21T10:11:24;96917.28;;;21.62;34.40
20115;BME280;10218;42.874;25.320;2023-03-21T10:13:56;96909.59;;;21.25;33.02
20115;BME280;10218;42.874;25.320;2023-03-21T10:16:30;96908.69;;;21.20;33.95
20115;BME280;10218;42.874;25.320;2023-03-21T10:19:05;96912.06;;;20.99;33.65
20115;BME280;10218;42.874;25.320;2023-03-21T10:21:38;96914.81;;;21.27;34.48
20115;BME280;10218;42.874;25.320;2023-03-21T10:24:27;96910.41;;;20.81;34.32
20115;BME280;10218;42.874;25.320;2023-03-21T10:26:55;96915.41;;;20.72;34.00
20115;BME280;10218;42.874;25.320;2023-03-21T10:29:27;96908.44;;;20.13;34.25
20115;BME280;10218;42.874;25.320;2023-03-21T10:31:56;96901.47;;;20.40;34.60
20115;BME280;10218;42.874;25.320;2023-03-21T10:34:34;96904.50;;;20.44;34.43
20115;BME280;10218;42.874;25.320;2023-03-21T10:37:04;96904.00;;;21.15;32.59
20115;BME280;10218;42.874;25.320;2023-03-21T10:39:40;96906.81;;;21.09;33.22
20115;BME280;10218;42.874;25.320;2023-03-21T10:42:29;96902.47;;;21.36;32.75
20115;BME280;10218;42.874;25.320;2023-03-21T10:44:58;96898.59;;;20.47;32.70
20115;BME280;10218;42.874;25.320;2023-03-21T10:47:29;96902.66;;;20.21;32.83
20115;BME280;10218;42.874;25.320;2023-03-21T10:50:10;96902.91;;;20.20;33.12
20115;BME280;10218;42.874;25.320;2023-03-21T10:52:49;96901.00;;;20.20;33.15
20115;BME280;10218;42.874;25.320;2023-03-21T10:55:30;96891.56;;;20.23;33.24
20115;BME280;10218;42.874;25.320;2023-03-21T10:58:07;96891.34;;;20.36;33.89
20115;BME280;10218;42.874;25.320;2023-03-21T11:00:40;96898.28;;;20.32;34.02
20115;BME280;10218;42.874;25.320;2023-03-21T11:03:29;96895.88;;;19.95;33.94
20115;BME280;10218;42.874;25.320;2023-03-21T11:06:06;96891.34;;;20.13;34.04
20115;BME280;10218;42.874;25.320;2023-03-21T11:08:43;96893.03;;;19.67;34.46
20115;BME280;10218;42.874;25.320;2023-03-21T11:11:28;96875.22;;;20.06;33.81
20115;BME280;10218;42.874;25.320;2023-03-21T11:14:01;96864.59;;;20.56;33.36
20115;BME280;10218;42.874;25.320;2023-03-21T11:16:37;96853.84;;;21.40;32.90
20115;BME280;10218;42.874;25.320;2023-03-21T11:21:39;96855.22;;;22.36;32.13
20115;BME280;10218;42.874;25.320;2023-03-21T11:24:13;96841.25;;;22.05;33.17
20115;BME280;10218;42.874;25.320;2023-03-21T11:26:43;96839.72;;;22.36;33.25
20115;BME280;10218;42.874;25.320;2023-03-21T11:29:35;96837.03;;;21.59;34.13
20115;BME280;10218;42.874;25.320;2023-03-21T11:32:21;96828.66;;;22.21;32.67
20115;BME280;10218;42.874;25.320;2023-03-21T11:34:56;96823.72;;;22.18;32.86
20115;BME280;10218;42.874;25.320;2023-03-21T11:37:30;96820.56;;;22.26;33.14
20115;BME280;10218;42.874;25.320;2023-03-21T11:42:37;96808.22;;;20.91;34.03
20115;BME280;10218;42.874;25.320;2023-03-21T11:47:38;96801.59;;;21.32;34.54
20115;BME280;10218;42.874;25.320;2023-03-21T11:55:40;96798.06;;;21.32;40.06
20115;BME280;10218;42.874;25.320;2023-03-21T12:01:04;96803.56;;;21.37;39.79
20115;BME280;10218;42.874;25.320;2023-03-21T12:15:05;96771.84;;;21.64;39.27
20115;BME280;10218;42.874;25.320;2023-03-21T12:17:42;96775.66;;;21.85;38.85
20115;BME280;10218;42.874;25.320;2023-03-21T12:20:13;96782.34;;;21.17;40.07
20115;BME280;10218;42.874;25.320;2023-03-21T12:22:50;96778.34;;;21.42;39.43
20115;BME280;10218;42.874;25.320;2023-03-21T12:25:31;96773.81;;;21.47;39.97
20115;BME280;10218;42.874;25.320;2023-03-21T12:33:45;96787.53;;;20.29;41.56
20115;BME280;10218;42.874;25.320;2023-03-21T12:39:06;96774.75;;;19.61;42.01
20115;BME280;10218;42.874;25.320;2023-03-21T12:41:44;96778.72;;;19.82;42.43
20115;BME280;10218;42.874;25.320;2023-03-21T12:44:20;96768.84;;;19.76;42.32
20115;BME280;10218;42.874;25.320;2023-03-21T12:47:01;96766.66;;;19.49;43.21
20115;BME280;10218;42.874;25.320;2023-03-21T12:49:56;96757.31;;;19.57;43.28
20115;BME280;10218;42.874;25.320;2023-03-21T12:53:00;96750.62;;;19.25;43.42
20115;BME280;10218;42.874;25.320;2023-03-21T12:55:33;96761.59;;;19.30;43.59
20115;BME280;10218;42.874;25.320;2023-03-21T12:58:22;96776.75;;;18.84;43.30
20115;BME280;10218;42.874;25.320;2023-03-21T13:00:57;96771.59;;;18.94;43.98
20115;BME280;10218;42.874;25.320;2023-03-21T13:03:45;96774.16;;;19.01;43.80
20115;BME280;10218;42.874;25.320;2023-03-21T13:06:18;96764.63;;;19.21;43.93
20115;BME280;10218;42.874;25.320;2023-03-21T13:08:57;96768.87;;;19.17;43.14
20115;BME280;10218;42.874;25.320;2023-03-21T13:11:28;96764.88;;;19.55;42.97
20115;BME280;10218;42.874;25.320;2023-03-21T13:14:07;96761.13;;;19.09;43.24
20115;BME280;10218;42.874;25.320;2023-03-21T13:16:47;96766.72;;;18.73;43.73
20115;BME280;10218;42.874;25.320;2023-03-21T13:19:27;96765.06;;;18.72;44.38
20115;BME280;10218;42.874;25.320;2023-03-21T13:24:56;96762.53;;;18.89;44.04
20115;BME280;10218;42.874;25.320;2023-03-21T13:27:34;96751.91;;;19.10;43.57
20115;BME280;10218;42.874;25.320;2023-03-21T13:32:40;96756.28;;;18.47;45.66
20115;BME280;10218;42.874;25.320;2023-03-21T13:37:39;96750.94;;;18.70;44.90
20115;BME280;10218;42.874;25.320;2023-03-21T13:40:26;96750.16;;;19.16;44.16
20115;BME280;10218;42.874;25.320;2023-03-21T13:42:58;96748.84;;;18.95;45.74
20115;BME280;10218;42.874;25.320;2023-03-21T13:45:30;96749.06;;;18.70;45.97
20115;BME280;10218;42.874;25.320;2023-03-21T13:48:01;96747.47;;;18.51;47.08
20115;BME280;10218;42.874;25.320;2023-03-21T13:55:44;96742.12;;;19.21;45.13
20115;BME280;10218;42.874;25.320;2023-03-21T14:03:39;96736.97;;;18.96;45.37
20115;BME280;10218;42.874;25.320;2023-03-21T14:06:07;96746.94;;;18.61;46.28
20115;BME280;10218;42.874;25.320;2023-03-21T14:08:39;96733.91;;;18.93;46.29
20115;BME280;10218;42.874;25.320;2023-03-21T14:11:12;96736.56;;;19.74;44.27
20115;BME280;10218;42.874;25.320;2023-03-21T14:13:42;96732.38;;;19.55;44.93
20115;BME280;10218;42.874;25.320;2023-03-21T14:16:18;96732.97;;;18.87;46.15
20115;BME280;10218;42.874;25.320;2023-03-21T14:18:53;96727.44;;;19.05;45.60
20115;BME280;10218;42.874;25.320;2023-03-21T14:21:28;96736.03;;;18.79;46.08
20115;BME280;10218;42.874;25.320;2023-03-21T14:24:15;96739.91;;;18.83;45.83
20115;BME280;10218;42.874;25.320;2023-03-21T14:26:47;96738.37;;;18.75;45.91
20115;BME280;10218;42.874;25.320;2023-03-21T14:29:27;96730.41;;;19.04;44.89
20115;BME280;10218;42.874;25.320;2023-03-21T14:31:57;96741.44;;;19.02;45.82
20115;BME280;10218;42.874;25.320;2023-03-21T14:34:27;96744.97;;;18.68;45.74
20115;BME280;10218;42.874;25.320;2023-03-21T14:36:56;96736.59;;;18.58;46.77
20115;BME280;10218;42.874;25.320;2023-03-21T14:39:30;96731.91;;;18.88;46.29
20115;BME280;10218;42.874;25.320;2023-03-21T14:42:06;96727.31;;;19.23;45.88
20115;BME280;10218;42.874;25.320;2023-03-21T14:44:40;96730.72;;;18.96;45.75
20115;BME280;10218;42.874;25.320;2023-03-21T14:47:27;96729.53;;;19.27;45.31